sensor_id;sensor_type;location;lat;lon;timestamp;P1;durP1;ratioP1;P2;durP2;ratioP2
54875;SDS011;40764;48.472;8.166;2023-03-01T00:05:52;32.63;;;13.97;;
54875;SDS011;40764;48.472;8.166;2023-03-01T00:11:52;35.00;;;15.43;;
54875;SDS011;40764;48.472;8.166;2023-03-01T00:17:53;40.67;;;16.93;;
54875;SDS011;40764;48.472;8.166;2023-03-01T00:23:53;34.53;;;15.70;;
54875;SDS011;40764;48.472;8.166;2023-03-01T00:29:54;34.78;;;15.15;;
54875;SDS011;40764;48.472;8.166;2023-03-01T00:35:57;35.60;;;15.77;;
54875;SDS011;40764;48.472;8.166;2023-03-01T00:41:58;38.05;;;15.00;;
54875;SDS011;40764;48.472;8.166;2023-03-01T00:47:59;30.10;;;14.40;;
54875;SDS011;40764;48.472;8.166;2023-03-01T00:54:00;41.17;;;15.40;;
54875;SDS011;40764;48.472;8.166;2023-03-01T01:00:03;33.33;;;13.88;;
54875;SDS011;40764;48.472;8.166;2023-03-01T01:06:05;33.15;;;14.68;;
54875;SDS011;40764;48.472;8.166;2023-03-01T01:12:09;30.20;;;13.25;;
54875;SDS011;40764;48.472;8.166;2023-03-01T01:18:09;31.05;;;13.65;;
54875;SDS011;40764;48.472;8.166;2023-03-01T01:24:10;29.90;;;14.07;;
54875;SDS011;40764;48.472;8.166;2023-03-01T01:30:11;42.50;;;16.15;;
54875;SDS011;40764;48.472;8.166;2023-03-01T01:36:12;34.00;;;13.37;;
54875;SDS011;40764;48.472;8.166;2023-03-01T01:42:16;34.47;;;15.15;;
54875;SDS011;40764;48.472;8.166;2023-03-01T01:48:19;32.60;;;13.50;;
54875;SDS011;40764;48.472;8.166;2023-03-01T01:54:23;30.35;;;14.10;;
54875;SDS011;40764;48.472;8.166;2023-03-01T02:00:29;30.52;;;13.55;;
54875;SDS011;40764;48.472;8.166;2023-03-01T02:12:30;32.40;;;13.27;;
54875;SDS011;40764;48.472;8.166;2023-03-01T02:18:31;29.23;;;14.07;;
54875;SDS011;40764;48.472;8.166;2023-03-01T02:31:03;26.65;;;13.23;;
54875;SDS011;40764;48.472;8.166;2023-03-01T02:37:24;30.98;;;13.57;;
54875;SDS011;40764;48.472;8.166;2023-03-01T02:43:27;27.13;;;13.55;;
54875;SDS011;40764;48.472;8.166;2023-03-01T02:49:32;31.88;;;14.10;;
54875;SDS011;40764;48.472;8.166;2023-03-01T02:55:34;41.97;;;16.02;;
54875;SDS011;40764;48.472;8.166;2023-03-01T03:01:35;38.13;;;16.13;;
54875;SDS011;40764;48.472;8.166;2023-03-01T03:07:39;34.03;;;15.30;;
54875;SDS011;40764;48.472;8.166;2023-03-01T03:13:41;29.52;;;14.30;;
54875;SDS011;40764;48.472;8.166;2023-03-01T03:19:47;30.95;;;13.65;;
54875;SDS011;40764;48.472;8.166;2023-03-01T03:25:49;33.40;;;15.83;;
54875;SDS011;40764;48.472;8.166;2023-03-01T03:37:50;41.38;;;16.00;;
54875;SDS011;40764;48.472;8.166;2023-03-01T03:44:03;35.40;;;15.90;;
54875;SDS011;40764;48.472;8.166;2023-03-01T03:50:04;36.43;;;16.97;;
54875;SDS011;40764;48.472;8.166;2023-03-01T03:56:05;40.03;;;17.17;;
54875;SDS011;40764;48.472;8.166;2023-03-01T04:02:05;35.30;;;16.13;;
54875;SDS011;40764;48.472;8.166;2023-03-01T04:08:09;39.13;;;16.70;;
54875;SDS011;40764;48.472;8.166;2023-03-01T04:14:09;47.30;;;17.73;;
54875;SDS011;40764;48.472;8.166;2023-03-01T04:20:10;40.53;;;17.33;;
54875;SDS011;40764;48.472;8.166;2023-03-01T04:26:12;40.60;;;16.30;;
54875;SDS011;40764;48.472;8.166;2023-03-01T04:32:12;38.97;;;17.42;;
54875;SDS011;40764;48.472;8.166;2023-03-01T04:38:16;36.72;;;15.93;;
54875;SDS011;40764;48.472;8.166;2023-03-01T04:44:19;45.00;;;18.38;;
54875;SDS011;40764;48.472;8.166;2023-03-01T04:50:20;48.90;;;19.45;;
54875;SDS011;40764;48.472;8.166;2023-03-01T04:56:21;44.10;;;19.00;;
54875;SDS011;40764;48.472;8.166;2023-03-01T05:02:22;51.15;;;20.65;;
54875;SDS011;40764;48.472;8.166;2023-03-01T05:08:23;56.57;;;20.47;;
54875;SDS011;40764;48.472;8.166;2023-03-01T05:14:23;50.55;;;21.23;;
54875;SDS011;40764;48.472;8.166;2023-03-01T05:20:24;73.88;;;24.10;;
54875;SDS011;40764;48.472;8.166;2023-03-01T05:26:25;61.75;;;26.13;;
54875;SDS011;40764;48.472;8.166;2023-03-01T05:32:28;59.20;;;24.42;;
54875;SDS011;40764;48.472;8.166;2023-03-01T05:38:32;62.40;;;24.25;;
54875;SDS011;40764;48.472;8.166;2023-03-01T05:44:32;70.70;;;25.30;;
54875;SDS011;40764;48.472;8.166;2023-03-01T05:50:36;63.88;;;24.33;;
54875;SDS011;40764;48.472;8.166;2023-03-01T05:56:39;63.22;;;27.85;;
54875;SDS011;40764;48.472;8.166;2023-03-01T06:02:39;69.40;;;27.07;;
54875;SDS011;40764;48.472;8.166;2023-03-01T06:08:40;51.33;;;22.97;;
54875;SDS011;40764;48.472;8.166;2023-03-01T06:14:40;61.05;;;25.48;;
54875;SDS011;40764;48.472;8.166;2023-03-01T06:20:41;51.28;;;19.77;;
54875;SDS011;40764;48.472;8.166;2023-03-01T06:26:41;48.72;;;20.38;;
54875;SDS011;40764;48.472;8.166;2023-03-01T06:32:41;38.87;;;18.70;;
54875;SDS011;40764;48.472;8.166;2023-03-01T06:38:42;52.23;;;18.20;;
54875;SDS011;40764;48.472;8.166;2023-03-01T06:44:43;42.10;;;20.47;;
54875;SDS011;40764;48.472;8.166;2023-03-01T06:50:44;53.50;;;21.70;;
54875;SDS011;40764;48.472;8.166;2023-03-01T06:56:46;34.78;;;17.48;;
54875;SDS011;40764;48.472;8.166;2023-03-01T07:02:46;38.03;;;17.67;;
54875;SDS011;40764;48.472;8.166;2023-03-01T07:08:47;42.00;;;17.77;;
54875;SDS011;40764;48.472;8.166;2023-03-01T07:14:47;36.13;;;16.60;;
54875;SDS011;40764;48.472;8.166;2023-03-01T07:20:48;37.65;;;17.73;;
54875;SDS011;40764;48.472;8.166;2023-03-01T07:26:48;38.33;;;17.00;;
54875;SDS011;40764;48.472;8.166;2023-03-01T07:32:50;36.95;;;17.63;;
54875;SDS011;40764;48.472;8.166;2023-03-01T07:38:50;32.47;;;16.43;;
54875;SDS011;40764;48.472;8.166;2023-03-01T07:44:51;33.13;;;16.87;;
54875;SDS011;40764;48.472;8.166;2023-03-01T07:50:51;35.28;;;15.55;;
54875;SDS011;40764;48.472;8.166;2023-03-01T07:56:51;34.22;;;15.73;;
54875;SDS011;40764;48.472;8.166;2023-03-01T08:02:52;32.67;;;14.80;;
54875;SDS011;40764;48.472;8.166;2023-03-01T08:08:52;29.33;;;14.60;;
54875;SDS011;40764;48.472;8.166;2023-03-01T08:14:55;32.70;;;14.95;;
54875;SDS011;40764;48.472;8.166;2023-03-01T08:21:01;35.65;;;16.63;;
54875;SDS011;40764;48.472;8.166;2023-03-01T08:27:11;36.70;;;17.45;;
54875;SDS011;40764;48.472;8.166;2023-03-01T08:33:12;37.50;;;16.20;;
54875;SDS011;40764;48.472;8.166;2023-03-01T08:39:14;43.60;;;17.70;;
54875;SDS011;40764;48.472;8.166;2023-03-01T08:45:16;40.05;;;16.83;;
54875;SDS011;40764;48.472;8.166;2023-03-01T08:51:18;37.95;;;16.13;;
54875;SDS011;40764;48.472;8.166;2023-03-01T08:57:19;34.22;;;15.88;;
54875;SDS011;40764;48.472;8.166;2023-03-01T09:03:20;32.33;;;16.30;;
54875;SDS011;40764;48.472;8.166;2023-03-01T09:09:20;31.27;;;16.08;;
54875;SDS011;40764;48.472;8.166;2023-03-01T09:15:21;38.73;;;17.40;;
54875;SDS011;40764;48.472;8.166;2023-03-01T09:21:21;34.33;;;16.13;;
54875;SDS011;40764;48.472;8.166;2023-03-01T09:33:24;41.00;;;18.63;;
54875;SDS011;40764;48.472;8.166;2023-03-01T09:39:25;36.10;;;17.83;;
54875;SDS011;40764;48.472;8.166;2023-03-01T09:45:28;32.17;;;17.13;;
54875;SDS011;40764;48.472;8.166;2023-03-01T09:51:34;37.58;;;18.73;;
54875;SDS011;40764;48.472;8.166;2023-03-01T09:57:49;31.92;;;16.77;;
54875;SDS011;40764;48.472;8.166;2023-03-01T10:10:35;42.65;;;20.67;;
54875;SDS011;40764;48.472;8.166;2023-03-01T10:16:47;38.00;;;17.83;;
54875;SDS011;40764;48.472;8.166;2023-03-01T10:22:53;33.13;;;18.67;;
54875;SDS011;40764;48.472;8.166;2023-03-01T10:29:11;35.10;;;18.15;;
54875;SDS011;40764;48.472;8.166;2023-03-01T10:35:19;35.70;;;19.35;;
54875;SDS011;40764;48.472;8.166;2023-03-01T10:41:32;37.13;;;19.20;;
54875;SDS011;40764;48.472;8.166;2023-03-01T10:47:32;33.42;;;18.27;;
54875;SDS011;40764;48.472;8.166;2023-03-01T10:53:37;37.42;;;18.67;;
54875;SDS011;40764;48.472;8.166;2023-03-01T10:59:40;37.47;;;18.27;;
54875;SDS011;40764;48.472;8.166;2023-03-01T11:05:50;41.97;;;19.27;;
54875;SDS011;40764;48.472;8.166;2023-03-01T11:11:59;40.83;;;19.73;;
54875;SDS011;40764;48.472;8.166;2023-03-01T11:24:01;38.00;;;19.30;;
54875;SDS011;40764;48.472;8.166;2023-03-01T11:30:18;37.03;;;18.80;;
54875;SDS011;40764;48.472;8.166;2023-03-01T11:36:39;32.63;;;17.25;;
54875;SDS011;40764;48.472;8.166;2023-03-01T11:42:48;44.50;;;21.15;;
54875;SDS011;40764;48.472;8.166;2023-03-01T11:55:17;37.80;;;20.50;;
54875;SDS011;40764;48.472;8.166;2023-03-01T12:08:14;42.33;;;19.08;;
54875;SDS011;40764;48.472;8.166;2023-03-01T12:14:37;42.00;;;21.00;;
54875;SDS011;40764;48.472;8.166;2023-03-01T12:27:14;44.53;;;22.27;;
54875;SDS011;40764;48.472;8.166;2023-03-01T13:10:49;46.35;;;21.75;;
54875;SDS011;40764;48.472;8.166;2023-03-01T13:16:59;41.65;;;21.42;;
54875;SDS011;40764;48.472;8.166;2023-03-01T13:23:04;47.17;;;23.20;;
54875;SDS011;40764;48.472;8.166;2023-03-01T13:29:11;41.40;;;21.02;;
54875;SDS011;40764;48.472;8.166;2023-03-01T13:35:40;46.05;;;23.30;;
54875;SDS011;40764;48.472;8.166;2023-03-01T13:47:42;40.00;;;20.98;;
54875;SDS011;40764;48.472;8.166;2023-03-01T13:53:46;38.03;;;19.95;;
54875;SDS011;40764;48.472;8.166;2023-03-01T13:59:47;45.00;;;23.60;;
54875;SDS011;40764;48.472;8.166;2023-03-01T14:05:57;43.10;;;21.85;;
54875;SDS011;40764;48.472;8.166;2023-03-01T14:12:09;39.72;;;20.63;;
54875;SDS011;40764;48.472;8.166;2023-03-01T14:18:36;37.30;;;19.38;;
54875;SDS011;40764;48.472;8.166;2023-03-01T14:24:52;38.72;;;19.63;;
54875;SDS011;40764;48.472;8.166;2023-03-01T14:31:01;38.38;;;18.92;;
54875;SDS011;40764;48.472;8.166;2023-03-01T14:37:19;33.50;;;18.97;;
54875;SDS011;40764;48.472;8.166;2023-03-01T14:43:31;37.33;;;20.20;;
54875;SDS011;40764;48.472;8.166;2023-03-01T14:49:32;36.08;;;19.23;;
54875;SDS011;40764;48.472;8.166;2023-03-01T14:55:36;37.42;;;20.13;;
54875;SDS011;40764;48.472;8.166;2023-03-01T15:01:41;39.38;;;19.92;;
54875;SDS011;40764;48.472;8.166;2023-03-01T15:07:42;38.27;;;19.73;;
54875;SDS011;40764;48.472;8.166;2023-03-01T15:13:48;39.15;;;19.23;;
54875;SDS011;40764;48.472;8.166;2023-03-01T15:19:49;37.73;;;20.30;;
54875;SDS011;40764;48.472;8.166;2023-03-01T15:25:50;36.17;;;19.05;;
54875;SDS011;40764;48.472;8.166;2023-03-01T15:32:02;40.72;;;20.35;;
54875;SDS011;40764;48.472;8.166;2023-03-01T15:38:22;42.22;;;21.75;;
54875;SDS011;40764;48.472;8.166;2023-03-01T15:44:27;36.90;;;20.35;;
54875;SDS011;40764;48.472;8.166;2023-03-01T15:50:30;40.92;;;21.33;;
54875;SDS011;40764;48.472;8.166;2023-03-01T15:56:33;43.15;;;19.70;;
54875;SDS011;40764;48.472;8.166;2023-03-01T16:02:33;37.80;;;20.57;;
54875;SDS011;40764;48.472;8.166;2023-03-01T16:08:34;44.55;;;20.58;;
54875;SDS011;40764;48.472;8.166;2023-03-01T16:14:34;43.67;;;22.05;;
54875;SDS011;40764;48.472;8.166;2023-03-01T16:20:34;46.27;;;19.93;;
54875;SDS011;40764;48.472;8.166;2023-03-01T16:26:36;42.23;;;21.67;;
54875;SDS011;40764;48.472;8.166;2023-03-01T16:32:38;47.13;;;23.73;;
54875;SDS011;40764;48.472;8.166;2023-03-01T16:38:42;42.40;;;22.17;;
54875;SDS011;40764;48.472;8.166;2023-03-01T16:44:42;44.60;;;23.03;;
54875;SDS011;40764;48.472;8.166;2023-03-01T16:50:43;42.40;;;22.47;;
54875;SDS011;40764;48.472;8.166;2023-03-01T16:56:43;46.05;;;22.90;;
54875;SDS011;40764;48.472;8.166;2023-03-01T17:02:44;50.17;;;23.20;;
54875;SDS011;40764;48.472;8.166;2023-03-01T17:08:44;53.50;;;22.90;;
54875;SDS011;40764;48.472;8.166;2023-03-01T17:14:44;42.25;;;22.38;;
54875;SDS011;40764;48.472;8.166;2023-03-01T17:20:45;47.17;;;23.67;;
54875;SDS011;40764;48.472;8.166;2023-03-01T17:26:45;51.67;;;22.63;;
54875;SDS011;40764;48.472;8.166;2023-03-01T17:32:46;46.50;;;22.87;;
54875;SDS011;40764;48.472;8.166;2023-03-01T17:38:46;54.20;;;24.67;;
54875;SDS011;40764;48.472;8.166;2023-03-01T17:44:48;52.38;;;25.00;;
54875;SDS011;40764;48.472;8.166;2023-03-01T17:50:48;45.08;;;22.60;;
54875;SDS011;40764;48.472;8.166;2023-03-01T17:56:49;47.70;;;23.35;;
54875;SDS011;40764;48.472;8.166;2023-03-01T18:02:49;51.60;;;23.53;;
54875;SDS011;40764;48.472;8.166;2023-03-01T18:08:50;48.85;;;22.52;;
54875;SDS011;40764;48.472;8.166;2023-03-01T18:14:51;50.03;;;24.75;;
54875;SDS011;40764;48.472;8.166;2023-03-01T18:20:55;58.50;;;24.90;;
54875;SDS011;40764;48.472;8.166;2023-03-01T18:26:59;56.75;;;25.88;;
54875;SDS011;40764;48.472;8.166;2023-03-01T18:32:59;61.20;;;25.47;;
54875;SDS011;40764;48.472;8.166;2023-03-01T18:39:03;76.20;;;36.00;;
54875;SDS011;40764;48.472;8.166;2023-03-01T18:45:05;54.30;;;26.00;;
54875;SDS011;40764;48.472;8.166;2023-03-01T18:51:07;43.30;;;21.00;;
54875;SDS011;40764;48.472;8.166;2023-03-01T18:57:09;49.47;;;22.73;;
54875;SDS011;40764;48.472;8.166;2023-03-01T19:03:09;62.88;;;28.85;;
54875;SDS011;40764;48.472;8.166;2023-03-01T19:09:10;59.97;;;27.30;;
54875;SDS011;40764;48.472;8.166;2023-03-01T19:15:11;49.28;;;22.73;;
54875;SDS011;40764;48.472;8.166;2023-03-01T19:21:11;80.67;;;30.33;;
54875;SDS011;40764;48.472;8.166;2023-03-01T19:27:11;73.50;;;29.10;;
54875;SDS011;40764;48.472;8.166;2023-03-01T19:33:12;42.60;;;20.80;;
54875;SDS011;40764;48.472;8.166;2023-03-01T19:39:12;77.83;;;33.77;;
54875;SDS011;40764;48.472;8.166;2023-03-01T19:45:13;97.47;;;37.07;;
54875;SDS011;40764;48.472;8.166;2023-03-01T19:51:13;74.37;;;30.97;;
54875;SDS011;40764;48.472;8.166;2023-03-01T19:57:14;56.87;;;24.83;;
54875;SDS011;40764;48.472;8.166;2023-03-01T20:03:14;67.43;;;26.85;;
54875;SDS011;40764;48.472;8.166;2023-03-01T20:09:15;68.37;;;29.80;;
54875;SDS011;40764;48.472;8.166;2023-03-01T20:15:15;66.47;;;28.13;;
54875;SDS011;40764;48.472;8.166;2023-03-01T20:21:16;78.77;;;28.93;;
54875;SDS011;40764;48.472;8.166;2023-03-01T20:27:17;71.68;;;30.00;;
54875;SDS011;40764;48.472;8.166;2023-03-01T20:33:18;98.57;;;35.03;;
54875;SDS011;40764;48.472;8.166;2023-03-01T20:39:18;64.43;;;29.52;;
54875;SDS011;40764;48.472;8.166;2023-03-01T20:45:19;86.27;;;37.80;;
54875;SDS011;40764;48.472;8.166;2023-03-01T20:51:20;69.20;;;28.92;;
54875;SDS011;40764;48.472;8.166;2023-03-01T20:57:21;67.80;;;25.27;;
54875;SDS011;40764;48.472;8.166;2023-03-01T21:03:21;70.70;;;29.70;;
54875;SDS011;40764;48.472;8.166;2023-03-01T21:09:21;59.13;;;25.27;;
54875;SDS011;40764;48.472;8.166;2023-03-01T21:15:22;56.33;;;25.45;;
54875;SDS011;40764;48.472;8.166;2023-03-01T21:21:22;66.03;;;26.20;;
54875;SDS011;40764;48.472;8.166;2023-03-01T21:27:23;59.93;;;27.90;;
54875;SDS011;40764;48.472;8.166;2023-03-01T21:33:23;95.17;;;37.03;;
54875;SDS011;40764;48.472;8.166;2023-03-01T21:39:24;139.57;;;44.30;;
54875;SDS011;40764;48.472;8.166;2023-03-01T21:45:28;80.72;;;30.13;;
54875;SDS011;40764;48.472;8.166;2023-03-01T21:51:28;96.77;;;36.63;;
54875;SDS011;40764;48.472;8.166;2023-03-01T21:57:30;100.63;;;33.90;;
54875;SDS011;40764;48.472;8.166;2023-03-01T22:03:30;87.07;;;31.17;;
54875;SDS011;40764;48.472;8.166;2023-03-01T22:09:31;112.67;;;35.30;;
54875;SDS011;40764;48.472;8.166;2023-03-01T22:15:33;92.15;;;32.13;;
54875;SDS011;40764;48.472;8.166;2023-03-01T22:21:34;98.47;;;32.28;;
54875;SDS011;40764;48.472;8.166;2023-03-01T22:27:38;83.68;;;33.97;;
54875;SDS011;40764;48.472;8.166;2023-03-01T22:33:38;78.97;;;30.40;;
54875;SDS011;40764;48.472;8.166;2023-03-01T22:39:38;64.22;;;26.63;;
54875;SDS011;40764;48.472;8.166;2023-03-01T22:45:39;63.00;;;25.95;;
54875;SDS011;40764;48.472;8.166;2023-03-01T22:51:40;66.22;;;28.23;;
54875;SDS011;40764;48.472;8.166;2023-03-01T22:57:41;69.53;;;27.08;;
54875;SDS011;40764;48.472;8.166;2023-03-01T23:03:41;54.53;;;24.30;;
54875;SDS011;40764;48.472;8.166;2023-03-01T23:09:42;55.57;;;23.47;;
54875;SDS011;40764;48.472;8.166;2023-03-01T23:15:42;51.42;;;21.05;;
54875;SDS011;40764;48.472;8.166;2023-03-01T23:21:43;48.13;;;21.35;;
54875;SDS011;40764;48.472;8.166;2023-03-01T23:27:48;66.40;;;26.23;;
54875;SDS011;40764;48.472;8.166;2023-03-01T23:33:49;74.75;;;25.50;;
54875;SDS011;40764;48.472;8.166;2023-03-01T23:39:49;68.00;;;25.77;;
54875;SDS011;40764;48.472;8.166;2023-03-01T23:45:53;57.25;;;22.42;;
54875;SDS011;40764;48.472;8.166;2023-03-01T23:51:53;66.35;;;24.73;;
54875;SDS011;40764;48.472;8.166;2023-03-01T23:57:53;63.70;;;23.88;;
